SIA826 WSSS-ZSPD
Flight info
| Callsign | SIA826 |
|---|---|
| Flight time | N/A |
| Altitude | 35000 |
| Route | VMR6E VMR M771 RAXIM/N0486F360 M771 DUDIS/K0898F360 M771 DOSUT/N0478F360 M771 DULOP/N0480F370 Q1 CARSO DCT NOBAD DCT SANKU/N0482F380 DCT SOUSA/N0479F370 V601 DOTMI/K0885S1130 A470 LJG B221 SHZ W58 BK BK81A |
| Aircraft | B77W/H-SDE1E2E3FGHIJ2J3J4J5M1RWXY/LB1D1 |
Departure
| Time | 2026-05-05 15:41 |
|---|---|
| Airport | Singapore Changi Airport (WSSS) |
Arrival
| Time | N/A |
|---|---|
| Airport | Shanghai Pudong International Airport (ZSPD) |
| Time | Latitude | Longitude | Altitude | Speed | Heading |
|---|---|---|---|---|---|
| 2026-05-05 15:02 | 1.35159 | 103.98345 | 35 ft | 0 kts | 112° |
| 2026-05-05 15:26 | 1.35160 | 103.98343 | 35 ft | 2 kts | 112° |
| 2026-05-05 15:27 | 1.35168 | 103.98319 | 34 ft | 4 kts | 103° |
| 2026-05-05 15:27 | 1.35175 | 103.98293 | 33 ft | 4 kts | 110° |
| 2026-05-05 15:27 | 1.35182 | 103.98274 | 33 ft | 4 kts | 123° |
| 2026-05-05 15:27 | 1.35195 | 103.98264 | 33 ft | 3 kts | 203° |
| 2026-05-05 15:28 | 1.35219 | 103.98274 | 34 ft | 4 kts | 203° |
| 2026-05-05 15:28 | 1.35232 | 103.98280 | 33 ft | 0 kts | 203° |
| 2026-05-05 15:35 | 1.35223 | 103.98276 | 34 ft | 4 kts | 203° |
| 2026-05-05 15:36 | 1.35194 | 103.98264 | 33 ft | 5 kts | 203° |
| 2026-05-05 15:36 | 1.35151 | 103.98241 | 35 ft | 11 kts | 218° |
| 2026-05-05 15:36 | 1.35108 | 103.98171 | 35 ft | 12 kts | 243° |
| 2026-05-05 15:36 | 1.35053 | 103.98108 | 35 ft | 12 kts | 213° |
| 2026-05-05 15:37 | 1.34977 | 103.98073 | 35 ft | 12 kts | 203° |
| 2026-05-05 15:37 | 1.34900 | 103.98040 | 36 ft | 12 kts | 202° |
| 2026-05-05 15:37 | 1.34833 | 103.98006 | 35 ft | 11 kts | 226° |
| 2026-05-05 15:37 | 1.34832 | 103.97934 | 35 ft | 10 kts | 293° |
| 2026-05-05 15:38 | 1.34850 | 103.97890 | 35 ft | 2 kts | 293° |
| 2026-05-05 15:38 | 1.34854 | 103.97882 | 35 ft | 1 kts | 293° |
| 2026-05-05 15:38 | 1.34855 | 103.97880 | 35 ft | 0 kts | 293° |
| 2026-05-05 15:39 | 1.34858 | 103.97873 | 35 ft | 6 kts | 293° |
| 2026-05-05 15:39 | 1.34885 | 103.97808 | 35 ft | 11 kts | 295° |
| 2026-05-05 15:39 | 1.34945 | 103.97771 | 35 ft | 11 kts | 2° |
| 2026-05-05 15:39 | 1.35015 | 103.97795 | 35 ft | 5 kts | 23° |
| 2026-05-05 15:40 | 1.35127 | 103.97843 | 35 ft | 51 kts | 23° |
| 2026-05-05 15:40 | 1.35700 | 103.98085 | 35 ft | 126 kts | 23° |
| 2026-05-05 15:40 | 1.36706 | 103.98509 | 37 ft | 184 kts | 22° |
| 2026-05-05 15:41 | 1.37921 | 103.99029 | 464 ft | 196 kts | 24° |
| 2026-05-05 15:41 | 1.39192 | 103.99582 | 1011 ft | 203 kts | 24° |
| 2026-05-05 15:41 | 1.40494 | 104.00127 | 1714 ft | 203 kts | 23° |
| 2026-05-05 15:41 | 1.41835 | 104.00680 | 2211 ft | 215 kts | 23° |
| 2026-05-05 15:42 | 1.43283 | 104.01288 | 2509 ft | 238 kts | 24° |
| 2026-05-05 15:42 | 1.44863 | 104.01966 | 2950 ft | 255 kts | 23° |
| 2026-05-05 15:42 | 1.46536 | 104.02674 | 3557 ft | 266 kts | 23° |
| 2026-05-05 15:42 | 1.48264 | 104.03396 | 4297 ft | 271 kts | 21° |
| 2026-05-05 15:43 | 1.48882 | 104.03605 | 4542 ft | 271 kts | 13° |
| 2026-05-05 15:43 | 1.49349 | 104.03701 | 4694 ft | 273 kts | 5° |
| 2026-05-05 15:43 | 1.49783 | 104.03729 | 4835 ft | 274 kts | 358° |
| 2026-05-05 15:43 | 1.51599 | 104.03262 | 5570 ft | 275 kts | 334° |
| 2026-05-05 15:44 | 1.52955 | 104.02573 | 6086 ft | 279 kts | 333° |
| 2026-05-05 15:44 | 1.54602 | 104.01746 | 6784 ft | 283 kts | 333° |
| 2026-05-05 15:44 | 1.56366 | 104.00860 | 7518 ft | 286 kts | 333° |
| 2026-05-05 15:44 | 1.58157 | 103.99959 | 8244 ft | 289 kts | 333° |
| 2026-05-05 15:45 | 1.59962 | 103.99051 | 8955 ft | 293 kts | 333° |
| 2026-05-05 15:45 | 1.61800 | 103.98126 | 9681 ft | 297 kts | 333° |
| 2026-05-05 15:45 | 1.63657 | 103.97193 | 10309 ft | 303 kts | 333° |
| 2026-05-05 15:45 | 1.65544 | 103.96245 | 10588 ft | 324 kts | 333° |
| 2026-05-05 15:46 | 1.67634 | 103.95196 | 10760 ft | 349 kts | 333° |
| 2026-05-05 15:46 | 1.69709 | 103.94156 | 10947 ft | 370 kts | 333° |
| 2026-05-05 15:46 | 1.71899 | 103.93058 | 11433 ft | 381 kts | 333° |
| 2026-05-05 15:46 | 1.74280 | 103.91866 | 12140 ft | 387 kts | 334° |
| 2026-05-05 15:47 | 1.76788 | 103.90977 | 12773 ft | 391 kts | 352° |
| 2026-05-05 15:47 | 1.78606 | 103.90826 | 13199 ft | 391 kts | 358° |
| 2026-05-05 15:47 | 1.81836 | 103.90699 | 14030 ft | 398 kts | 358° |
| 2026-05-05 15:47 | 1.83760 | 103.90611 | 14580 ft | 399 kts | 358° |
| 2026-05-05 15:48 | 1.86551 | 103.90468 | 15358 ft | 402 kts | 358° |
| 2026-05-05 15:48 | 1.88406 | 103.90366 | 15835 ft | 405 kts | 358° |
| 2026-05-05 15:48 | 1.90526 | 103.90243 | 16350 ft | 409 kts | 358° |
| 2026-05-05 15:48 | 1.91861 | 103.90163 | 16670 ft | 412 kts | 358° |
| 2026-05-05 15:49 | 1.93142 | 103.90086 | 16968 ft | 414 kts | 358° |
| 2026-05-05 15:49 | 1.95652 | 103.89930 | 17548 ft | 418 kts | 358° |
| 2026-05-05 15:49 | 1.98538 | 103.89749 | 18220 ft | 422 kts | 358° |
| 2026-05-05 15:49 | 2.01490 | 103.89562 | 18797 ft | 426 kts | 358° |
| 2026-05-05 15:50 | 2.04461 | 103.89374 | 19403 ft | 429 kts | 358° |
| 2026-05-05 15:50 | 2.07454 | 103.89184 | 20002 ft | 433 kts | 358° |
| 2026-05-05 15:50 | 2.10467 | 103.88993 | 20593 ft | 436 kts | 358° |
| 2026-05-05 15:50 | 2.13504 | 103.88801 | 21144 ft | 440 kts | 358° |
| 2026-05-05 15:51 | 2.16573 | 103.88607 | 21714 ft | 443 kts | 358° |
| 2026-05-05 15:51 | 2.19668 | 103.88411 | 22271 ft | 447 kts | 358° |
| 2026-05-05 15:51 | 2.22776 | 103.88214 | 22816 ft | 450 kts | 358° |
| 2026-05-05 15:51 | 2.25876 | 103.88018 | 23330 ft | 454 kts | 358° |
| 2026-05-05 15:52 | 2.29039 | 103.87818 | 23772 ft | 457 kts | 358° |
| 2026-05-05 15:52 | 2.32228 | 103.87616 | 24181 ft | 461 kts | 358° |
| 2026-05-05 15:52 | 2.35434 | 103.87416 | 24616 ft | 462 kts | 359° |
| 2026-05-05 15:52 | 2.38631 | 103.87610 | 24862 ft | 463 kts | 14° |
| 2026-05-05 15:53 | 2.41640 | 103.88750 | 25183 ft | 465 kts | 32° |
| 2026-05-05 15:53 | 2.44328 | 103.90520 | 25537 ft | 464 kts | 35° |
| 2026-05-05 15:53 | 2.47039 | 103.92294 | 25885 ft | 468 kts | 34° |
| 2026-05-05 15:53 | 2.49792 | 103.94041 | 26295 ft | 471 kts | 33° |
| 2026-05-05 15:54 | 2.52537 | 103.95757 | 26710 ft | 473 kts | 33° |
| 2026-05-05 15:54 | 2.55342 | 103.97499 | 27138 ft | 475 kts | 33° |
| 2026-05-05 15:54 | 2.58163 | 103.99248 | 27526 ft | 479 kts | 33° |
| 2026-05-05 15:54 | 2.61001 | 104.01008 | 27883 ft | 482 kts | 33° |
| 2026-05-05 15:55 | 2.63859 | 104.02782 | 28223 ft | 486 kts | 33° |
| 2026-05-05 15:55 | 2.66736 | 104.04571 | 28590 ft | 488 kts | 33° |
| 2026-05-05 15:55 | 2.69637 | 104.06374 | 28961 ft | 491 kts | 33° |
| 2026-05-05 15:55 | 2.72545 | 104.08184 | 29295 ft | 494 kts | 33° |
| 2026-05-05 15:56 | 2.75464 | 104.10001 | 29615 ft | 496 kts | 33° |
| 2026-05-05 15:56 | 2.78398 | 104.11827 | 29906 ft | 499 kts | 33° |
| 2026-05-05 15:56 | 2.81357 | 104.13669 | 30239 ft | 499 kts | 33° |
| 2026-05-05 15:56 | 2.84261 | 104.15475 | 30665 ft | 498 kts | 33° |
| 2026-05-05 15:57 | 2.87194 | 104.17300 | 31075 ft | 496 kts | 33° |
| 2026-05-05 15:57 | 2.90128 | 104.19126 | 31490 ft | 495 kts | 33° |
| 2026-05-05 15:57 | 2.93054 | 104.20948 | 31893 ft | 495 kts | 33° |
| 2026-05-05 15:57 | 2.95911 | 104.22727 | 32310 ft | 493 kts | 33° |
| 2026-05-05 15:58 | 2.98594 | 104.24398 | 32693 ft | 492 kts | 33° |
| 2026-05-05 15:58 | 3.01494 | 104.26204 | 33068 ft | 492 kts | 33° |
| 2026-05-05 15:58 | 3.04365 | 104.27991 | 33449 ft | 492 kts | 33° |
| 2026-05-05 15:58 | 3.07212 | 104.29770 | 33821 ft | 491 kts | 33° |
| 2026-05-05 15:59 | 3.10151 | 104.31627 | 34173 ft | 490 kts | 33° |
| 2026-05-05 15:59 | 3.13025 | 104.33448 | 34548 ft | 488 kts | 33° |
| 2026-05-05 15:59 | 3.15894 | 104.35249 | 34904 ft | 487 kts | 33° |
| 2026-05-05 16:00 | 3.21674 | 104.38826 | 34915 ft | 488 kts | 33° |
| 2026-05-05 16:00 | 3.27391 | 104.42358 | 34902 ft | 484 kts | 33° |
| 2026-05-05 16:01 | 3.33109 | 104.45902 | 34906 ft | 482 kts | 33° |
| 2026-05-05 16:01 | 3.38813 | 104.49442 | 34908 ft | 482 kts | 33° |
| 2026-05-05 16:02 | 3.44518 | 104.52981 | 34910 ft | 484 kts | 33° |
| 2026-05-05 16:02 | 3.50214 | 104.56519 | 34908 ft | 485 kts | 33° |
| 2026-05-05 16:03 | 3.55949 | 104.60084 | 34906 ft | 486 kts | 33° |
| 2026-05-05 16:03 | 3.61704 | 104.63661 | 34905 ft | 487 kts | 33° |
| 2026-05-05 16:04 | 3.67464 | 104.67243 | 34907 ft | 488 kts | 33° |
| 2026-05-05 16:04 | 3.73192 | 104.70806 | 34903 ft | 488 kts | 33° |
| 2026-05-05 16:05 | 3.78959 | 104.74394 | 34907 ft | 488 kts | 33° |
| 2026-05-05 16:05 | 3.84769 | 104.78008 | 34919 ft | 496 kts | 33° |
| 2026-05-05 16:06 | 3.90655 | 104.81673 | 34911 ft | 499 kts | 33° |
| 2026-05-05 16:06 | 3.96507 | 104.85318 | 34905 ft | 498 kts | 33° |
| 2026-05-05 16:07 | 4.02392 | 104.88985 | 34904 ft | 498 kts | 33° |
| 2026-05-05 16:07 | 4.08258 | 104.92641 | 34906 ft | 497 kts | 33° |
| 2026-05-05 16:08 | 4.14126 | 104.96299 | 34905 ft | 496 kts | 33° |